Terminal Aerodrome Forecast
Issued by NWS Springfield, MO

Home | Current Version | Previous Version | Text Only | Print | Product List | Glossary On
Versions: 1 2 3 4 5 6 7 8 9 10 11 12 13 14 15 16 17 18 19 20
000
FTUS43 KSGF 020900 AAB
TAFSGF
TAF AMD
KSGF 020951Z 0210/0306 15011KT P6SM VCSH OVC040
      TEMPO 0210/0213 4SM TSRA BR BKN025CB
     FM021300 25008KT P6SM VCSH BKN030
     FM021600 31010KT P6SM BKN030=

USA.gov is the U.S. government's official web portal to all federal, state and local government web resources and services.